createdAt,value
2023-05-01T00:00:20.727Z,18.33
2023-05-01T00:02:47.456Z,18.20
2023-05-01T00:05:14.085Z,18.22
2023-05-01T00:07:40.716Z,18.16
2023-05-01T00:10:07.824Z,18.11
2023-05-01T00:12:34.382Z,18.06
2023-05-01T00:15:00.981Z,18.08
2023-05-01T00:17:28.310Z,18.04
2023-05-01T00:19:55.207Z,18.00
2023-05-01T00:22:22.033Z,18.07
2023-05-01T00:24:50.060Z,18.12
2023-05-01T00:27:16.703Z,18.09
2023-05-01T00:29:43.350Z,18.09
2023-05-01T00:32:10.509Z,18.07
2023-05-01T00:34:37.259Z,18.09
2023-05-01T00:37:03.947Z,18.06
2023-05-01T00:39:30.566Z,18.13
2023-05-01T00:41:57.624Z,18.13
2023-05-01T00:44:24.291Z,18.14
2023-05-01T00:46:51.198Z,18.15
2023-05-01T00:49:18.060Z,18.14
2023-05-01T00:51:49.255Z,18.15
2023-05-01T00:54:15.902Z,18.15
2023-05-01T00:56:42.868Z,18.12
2023-05-01T00:59:09.462Z,18.13
2023-05-01T01:01:36.104Z,18.07
2023-05-01T01:04:02.754Z,18.11
2023-05-01T01:07:03.807Z,18.11
2023-05-01T01:09:50.294Z,18.05
2023-05-01T01:12:22.813Z,18.00
2023-05-01T01:15:35.780Z,17.99
2023-05-01T01:18:10.054Z,17.95
2023-05-01T01:21:01.589Z,17.90
2023-05-01T01:24:03.432Z,17.80
2023-05-01T01:27:11.300Z,17.67
2023-05-01T01:29:59.390Z,17.74
2023-05-01T01:32:44.724Z,17.71
2023-05-01T01:35:19.598Z,17.65
2023-05-01T01:37:57.291Z,17.58
2023-05-01T01:40:29.170Z,17.54
2023-05-01T01:43:02.355Z,17.59
2023-05-01T01:45:41.331Z,17.58
2023-05-01T01:48:14.990Z,17.49
2023-05-01T01:50:43.867Z,17.50
2023-05-01T01:53:13.087Z,17.42
2023-05-01T01:55:42.160Z,17.39
2023-05-01T01:58:10.691Z,17.36
2023-05-01T02:00:39.167Z,17.32
2023-05-01T02:03:06.623Z,17.29
2023-05-01T02:05:34.895Z,17.23
2023-05-01T02:08:04.268Z,17.20
2023-05-01T02:10:32.725Z,17.21
2023-05-01T02:13:00.496Z,17.12
2023-05-01T02:15:28.179Z,17.18
2023-05-01T02:17:55.114Z,17.18
2023-05-01T02:20:22.356Z,17.15
2023-05-01T02:22:53.318Z,17.00
2023-05-01T02:25:20.091Z,17.16
2023-05-01T02:28:08.810Z,17.12
2023-05-01T02:30:36.007Z,17.03
2023-05-01T02:33:03.242Z,16.96
2023-05-01T02:35:29.909Z,16.94
2023-05-01T02:37:56.520Z,16.89
2023-05-01T02:40:24.150Z,16.75
2023-05-01T02:42:53.127Z,16.81
2023-05-01T02:45:22.174Z,16.77
2023-05-01T02:47:53.863Z,16.81
2023-05-01T02:50:22.281Z,16.76
2023-05-01T02:52:50.083Z,16.68
2023-05-01T02:55:17.476Z,16.73
2023-05-01T02:57:44.050Z,16.69
2023-05-01T03:00:13.832Z,16.68
2023-05-01T03:02:41.343Z,16.72
2023-05-01T03:05:08.722Z,16.64
2023-05-01T03:07:35.538Z,16.58
2023-05-01T03:10:07.893Z,16.66
2023-05-01T03:12:34.578Z,16.67
2023-05-01T03:15:01.153Z,16.67
2023-05-01T03:17:27.831Z,16.64
2023-05-01T03:19:54.701Z,16.67
2023-05-01T03:22:21.772Z,16.68
2023-05-01T03:24:48.612Z,16.74
2023-05-01T03:27:15.161Z,16.74
2023-05-01T03:29:41.825Z,16.72
2023-05-01T03:32:08.526Z,16.64
2023-05-01T03:34:35.848Z,16.72
2023-05-01T03:37:02.528Z,16.69
2023-05-01T03:39:29.139Z,16.67
2023-05-01T03:41:55.704Z,16.64
2023-05-01T03:44:22.388Z,16.68
2023-05-01T03:46:48.984Z,16.63
2023-05-01T03:49:15.665Z,16.68
2023-05-01T03:51:42.288Z,16.74
2023-05-01T03:54:08.995Z,16.68
2023-05-01T03:56:36.626Z,16.68
2023-05-01T03:59:03.254Z,16.69
2023-05-01T04:01:30.107Z,16.67
2023-05-01T04:03:56.747Z,16.70
2023-05-01T04:06:23.808Z,16.79
2023-05-01T04:08:50.449Z,16.81
2023-05-01T04:11:17.024Z,16.80
2023-05-01T04:13:43.640Z,16.76
2023-05-01T04:16:10.299Z,16.76
2023-05-01T04:18:36.907Z,16.76
2023-05-01T04:21:03.773Z,16.73
2023-05-01T04:23:30.364Z,16.73
2023-05-01T04:25:56.997Z,16.68
2023-05-01T04:28:23.594Z,16.66
2023-05-01T04:30:50.428Z,16.62
2023-05-01T04:33:17.019Z,16.59
2023-05-01T04:35:43.833Z,16.51
2023-05-01T04:38:13.460Z,16.46
2023-05-01T04:40:40.096Z,16.47
2023-05-01T04:43:06.875Z,16.42
2023-05-01T04:45:33.455Z,16.41
2023-05-01T04:48:00.159Z,16.42
2023-05-01T04:50:26.960Z,16.48
2023-05-01T04:52:53.934Z,16.47
2023-05-01T04:55:20.642Z,16.56
2023-05-01T04:57:47.460Z,16.62
2023-05-01T05:00:14.963Z,16.70
2023-05-01T05:02:41.783Z,16.69
2023-05-01T05:05:08.845Z,16.76
2023-05-01T05:07:35.409Z,16.73
2023-05-01T05:10:02.155Z,16.86
2023-05-01T05:12:28.832Z,16.86
2023-05-01T05:14:55.542Z,16.90
2023-05-01T05:17:22.164Z,16.87
2023-05-01T05:19:48.739Z,16.87
2023-05-01T05:22:15.764Z,16.87
2023-05-01T05:24:47.134Z,16.84
2023-05-01T05:27:13.810Z,16.82
2023-05-01T05:29:40.425Z,16.81
2023-05-01T05:32:07.131Z,16.75
2023-05-01T05:34:33.887Z,16.85
2023-05-01T05:37:00.514Z,16.82
2023-05-01T05:39:27.199Z,16.85
2023-05-01T05:41:54.058Z,16.82
2023-05-01T05:44:20.862Z,16.74
2023-05-01T05:46:47.665Z,16.73
2023-05-01T05:49:14.398Z,16.76
2023-05-01T05:51:41.110Z,16.82
2023-05-01T05:54:07.770Z,16.75
2023-05-01T05:56:34.374Z,16.75
2023-05-01T05:59:03.661Z,16.81
2023-05-01T06:01:30.543Z,16.82
2023-05-01T06:03:57.214Z,16.93
2023-05-01T06:06:24.422Z,16.78
2023-05-01T06:08:51.056Z,16.65
2023-05-01T06:11:17.835Z,16.73
2023-05-01T06:13:44.397Z,16.96
2023-05-01T06:16:11.137Z,16.91
2023-05-01T06:18:38.465Z,16.94
2023-05-01T06:21:05.075Z,16.92
2023-05-01T06:23:31.942Z,16.86
2023-05-01T06:25:58.960Z,16.83
2023-05-01T06:28:25.688Z,16.95
2023-05-01T06:30:52.491Z,17.09
2023-05-01T06:33:19.321Z,17.04
2023-05-01T06:35:46.052Z,17.06
2023-05-01T06:38:12.599Z,17.13
2023-05-01T06:40:39.155Z,17.07
2023-05-01T06:43:05.950Z,17.16
2023-05-01T06:45:32.730Z,17.15
2023-05-01T06:47:59.380Z,17.12
2023-05-01T06:50:25.971Z,17.15
2023-05-01T06:52:52.583Z,17.29
2023-05-01T06:55:19.571Z,17.36
2023-05-01T06:57:46.210Z,17.34
2023-05-01T07:00:13.863Z,17.40
2023-05-01T07:02:41.067Z,17.46
2023-05-01T07:05:08.016Z,17.71
2023-05-01T07:07:35.076Z,17.85
2023-05-01T07:10:02.377Z,17.73
2023-05-01T07:12:29.668Z,17.76
2023-05-01T07:14:57.068Z,17.85
2023-05-01T07:17:23.753Z,17.74
2023-05-01T07:19:50.702Z,17.85
2023-05-01T07:22:17.346Z,18.07
2023-05-01T07:24:44.306Z,18.15
2023-05-01T07:27:11.034Z,17.90
2023-05-01T07:29:40.688Z,18.20
2023-05-01T07:32:07.645Z,18.21
2023-05-01T07:34:34.963Z,18.56
2023-05-01T07:37:01.892Z,18.60
2023-05-01T07:39:28.708Z,18.54
2023-05-01T07:41:57.657Z,18.16
2023-05-01T07:44:24.310Z,18.16
2023-05-01T07:46:50.926Z,18.19
2023-05-01T07:49:17.532Z,18.17
2023-05-01T07:51:44.787Z,18.04
2023-05-01T07:54:12.018Z,18.10
2023-05-01T07:56:39.740Z,18.26
2023-05-01T07:59:06.310Z,18.32
2023-05-01T08:01:34.985Z,18.73
2023-05-01T08:04:01.665Z,18.58
2023-05-01T08:06:28.545Z,18.44
2023-05-01T08:08:55.271Z,18.54
2023-05-01T08:11:22.070Z,19.03
2023-05-01T08:13:48.757Z,18.80
2023-05-01T08:16:15.451Z,19.11
2023-05-01T08:18:42.108Z,19.16
2023-05-01T08:21:08.695Z,19.39
2023-05-01T08:23:35.446Z,19.73
2023-05-01T08:26:02.183Z,20.14
2023-05-01T08:28:29.080Z,20.23
2023-05-01T08:30:55.860Z,20.92
2023-05-01T08:33:22.618Z,20.92
2023-05-01T08:35:49.462Z,21.13
2023-05-01T08:38:16.066Z,20.71
2023-05-01T08:40:51.074Z,20.50
2023-05-01T08:43:18.158Z,20.33
2023-05-01T08:45:47.486Z,19.95
2023-05-01T08:48:18.839Z,20.30
2023-05-01T08:50:47.426Z,20.35
2023-05-01T08:53:15.772Z,20.84
2023-05-01T08:55:44.022Z,20.47
2023-05-01T08:58:15.369Z,20.57
2023-05-01T09:00:42.882Z,19.98
2023-05-01T09:03:13.457Z,19.58
2023-05-01T09:05:40.565Z,19.86
2023-05-01T09:08:07.216Z,20.52
2023-05-01T09:10:38.040Z,20.49
2023-05-01T09:13:07.270Z,20.66
2023-05-01T09:15:33.877Z,20.77
2023-05-01T09:18:03.624Z,21.13
2023-05-01T09:20:32.066Z,21.27
2023-05-01T09:23:03.217Z,21.62
2023-05-01T09:25:33.898Z,22.29
2023-05-01T09:28:00.619Z,22.00
2023-05-01T09:30:38.195Z,21.50
2023-05-01T09:33:11.894Z,21.13
2023-05-01T09:35:59.833Z,21.57
2023-05-01T09:38:29.069Z,21.64
2023-05-01T09:41:03.633Z,22.40
2023-05-01T09:43:31.607Z,22.63
2023-05-01T09:46:01.850Z,21.70
2023-05-01T09:48:29.266Z,21.92
2023-05-01T09:50:55.978Z,22.13
2023-05-01T09:53:40.241Z,22.03
2023-05-01T09:56:07.235Z,21.69
2023-05-01T09:58:34.016Z,21.48
2023-05-01T10:01:00.894Z,21.21
2023-05-01T10:03:28.923Z,21.37
2023-05-01T10:05:57.841Z,21.58
2023-05-01T10:08:24.494Z,21.41
2023-05-01T10:11:05.331Z,21.22
2023-05-01T10:13:32.189Z,21.35
2023-05-01T10:16:01.405Z,21.21
2023-05-01T10:18:30.627Z,21.04
2023-05-01T10:20:57.503Z,20.89
2023-05-01T10:23:25.487Z,20.87
2023-05-01T10:25:53.823Z,20.67
2023-05-01T10:28:21.950Z,20.57
2023-05-01T10:30:49.240Z,20.42
2023-05-01T10:33:16.497Z,20.74
2023-05-01T10:35:48.255Z,20.83
2023-05-01T10:38:24.123Z,21.19
2023-05-01T10:40:51.672Z,20.91
2023-05-01T10:43:21.252Z,20.77
2023-05-01T10:45:50.103Z,21.23
2023-05-01T10:48:56.030Z,21.19
2023-05-01T10:51:26.634Z,21.17
2023-05-01T10:54:12.564Z,21.16
2023-05-01T10:56:39.079Z,21.00
2023-05-01T10:59:06.442Z,21.12
2023-05-01T11:01:45.375Z,21.25
2023-05-01T11:04:24.708Z,21.27
2023-05-01T11:06:57.698Z,20.89
2023-05-01T11:09:42.704Z,20.96
2023-05-01T11:12:14.667Z,20.70
2023-05-01T11:14:54.129Z,20.72
2023-05-01T11:17:40.001Z,20.66
2023-05-01T11:20:10.450Z,20.91
2023-05-01T11:22:39.874Z,20.92
2023-05-01T11:25:28.078Z,20.73
2023-05-01T11:27:56.282Z,20.65
2023-05-01T11:30:23.064Z,20.72
2023-05-01T11:32:51.319Z,20.78
2023-05-01T11:35:28.591Z,20.85
2023-05-01T11:37:57.938Z,20.61
2023-05-01T11:40:32.645Z,20.69
2023-05-01T11:43:07.138Z,20.49
2023-05-01T11:45:35.811Z,20.18
2023-05-01T11:48:04.203Z,20.37
2023-05-01T11:50:40.450Z,20.40
2023-05-01T11:53:17.486Z,20.47
2023-05-01T11:55:49.657Z,20.48
2023-05-01T11:58:17.126Z,20.43
2023-05-01T12:00:44.077Z,20.54
2023-05-01T12:03:14.683Z,20.63
2023-05-01T12:05:43.604Z,20.49
2023-05-01T12:08:15.002Z,20.43
2023-05-01T12:10:43.628Z,20.33
2023-05-01T12:13:12.900Z,20.25
2023-05-01T12:15:42.428Z,20.36
2023-05-01T12:18:10.244Z,20.36
2023-05-01T12:20:48.782Z,20.28
2023-05-01T12:23:16.757Z,20.30
2023-05-01T12:25:45.039Z,20.12
2023-05-01T12:28:16.860Z,20.23
2023-05-01T12:30:45.969Z,20.27
2023-05-01T12:33:21.338Z,20.32
2023-05-01T12:35:50.693Z,20.15
2023-05-01T12:38:22.253Z,20.12
2023-05-01T12:40:52.922Z,20.26
2023-05-01T12:43:29.767Z,20.10
2023-05-01T12:45:56.957Z,20.26
2023-05-01T12:48:24.792Z,19.94
2023-05-01T12:50:55.251Z,19.84
2023-05-01T12:53:23.437Z,20.01
2023-05-01T12:55:52.858Z,20.23
2023-05-01T12:58:19.645Z,20.11
2023-05-01T13:00:49.470Z,20.27
2023-05-01T13:03:25.821Z,20.24
2023-05-01T13:06:01.702Z,20.40
2023-05-01T13:08:41.307Z,20.50
2023-05-01T13:11:17.925Z,20.46
2023-05-01T13:13:45.966Z,20.34
2023-05-01T13:16:16.691Z,19.99
2023-05-01T13:18:51.383Z,20.04
2023-05-01T13:21:21.501Z,20.15
2023-05-01T13:23:55.233Z,20.31
2023-05-01T13:26:29.182Z,20.44
2023-05-01T13:28:57.238Z,20.53
2023-05-01T13:31:24.529Z,20.45
2023-05-01T13:33:53.757Z,20.21
2023-05-01T13:36:25.793Z,20.03
2023-05-01T13:38:56.797Z,20.05
2023-05-01T13:41:26.008Z,20.24
2023-05-01T13:43:54.234Z,20.29
2023-05-01T13:46:22.686Z,20.18
2023-05-01T13:48:49.576Z,20.30
2023-05-01T13:51:24.348Z,20.08
2023-05-01T13:53:53.657Z,20.23
2023-05-01T13:56:21.757Z,20.22
2023-05-01T13:58:50.277Z,20.15
2023-05-01T14:01:19.223Z,20.16
2023-05-01T14:03:46.568Z,20.18
2023-05-01T14:06:16.712Z,20.15
2023-05-01T14:08:44.702Z,19.98
2023-05-01T14:11:12.497Z,19.78
2023-05-01T14:13:46.794Z,19.80
2023-05-01T14:16:25.103Z,19.88
2023-05-01T14:18:55.517Z,19.88
2023-05-01T14:21:24.598Z,19.68
2023-05-01T14:23:55.343Z,19.47
2023-05-01T14:26:24.820Z,19.28
2023-05-01T14:28:51.706Z,19.52
2023-05-01T14:31:27.548Z,19.48
2023-05-01T14:34:02.154Z,19.51
2023-05-01T14:36:34.210Z,19.55
2023-05-01T14:39:03.985Z,19.64
2023-05-01T14:41:31.720Z,19.54
2023-05-01T14:43:58.616Z,19.48
2023-05-01T14:46:35.980Z,19.64
2023-05-01T14:49:03.359Z,19.55
2023-05-01T14:51:32.293Z,19.43
2023-05-01T14:54:00.048Z,19.48
2023-05-01T14:56:27.262Z,19.64
2023-05-01T14:58:54.120Z,19.59
2023-05-01T15:01:21.528Z,19.58
2023-05-01T15:03:48.252Z,19.54
2023-05-01T15:06:15.043Z,19.38
2023-05-01T15:08:42.407Z,19.45
2023-05-01T15:11:09.713Z,19.52
2023-05-01T15:13:36.961Z,19.59
2023-05-01T15:16:03.961Z,19.43
2023-05-01T15:18:30.882Z,19.26
2023-05-01T15:20:57.458Z,18.96
2023-05-01T15:23:27.281Z,18.95
2023-05-01T15:25:54.061Z,18.93
2023-05-01T15:28:24.721Z,18.79
2023-05-01T15:30:53.107Z,18.83
2023-05-01T15:33:19.739Z,18.87
2023-05-01T15:35:47.318Z,18.64
2023-05-01T15:38:14.044Z,18.48
2023-05-01T15:40:43.418Z,18.54
2023-05-01T15:43:10.038Z,18.35
2023-05-01T15:45:42.535Z,18.28
2023-05-01T15:48:10.125Z,18.06
2023-05-01T15:50:37.086Z,18.24
2023-05-01T15:53:03.766Z,18.24
2023-05-01T15:55:31.203Z,18.27
2023-05-01T15:57:57.876Z,18.10
2023-05-01T16:00:25.489Z,18.02
2023-05-01T16:02:52.237Z,18.10
2023-05-01T16:05:23.097Z,17.79
2023-05-01T16:07:59.591Z,18.09
2023-05-01T16:10:26.228Z,18.01
2023-05-01T16:12:53.691Z,17.98
2023-05-01T16:15:20.575Z,17.89
2023-05-01T16:17:47.911Z,17.91
2023-05-01T16:20:14.872Z,17.84
2023-05-01T16:22:43.181Z,17.85
2023-05-01T16:25:10.654Z,17.96
2023-05-01T16:27:47.476Z,17.93
2023-05-01T16:30:14.584Z,17.83
2023-05-01T16:32:41.751Z,17.73
2023-05-01T16:35:16.883Z,17.79
2023-05-01T16:37:43.624Z,17.58
2023-05-01T16:40:16.963Z,17.66
2023-05-01T16:42:53.547Z,17.48
2023-05-01T16:45:21.407Z,17.77
2023-05-01T16:47:48.167Z,17.70
2023-05-01T16:50:16.436Z,17.70
2023-05-01T16:52:43.123Z,17.43
2023-05-01T16:55:10.180Z,17.73
2023-05-01T16:57:37.677Z,17.58
2023-05-01T17:00:06.271Z,17.56
2023-05-01T17:02:35.353Z,17.68
2023-05-01T17:05:03.372Z,17.56
2023-05-01T17:07:30.098Z,17.24
2023-05-01T17:09:56.825Z,17.42
2023-05-01T17:12:23.636Z,17.33
2023-05-01T17:14:50.953Z,17.16
2023-05-01T17:17:20.794Z,17.21
2023-05-01T17:19:47.597Z,17.23
2023-05-01T17:22:15.261Z,17.14
2023-05-01T17:24:41.881Z,17.07
2023-05-01T17:27:08.701Z,17.08
2023-05-01T17:29:35.438Z,16.93
2023-05-01T17:32:02.341Z,16.91
2023-05-01T17:34:29.172Z,16.85
2023-05-01T17:36:57.891Z,16.70
2023-05-01T17:39:26.213Z,16.61
2023-05-01T17:41:52.852Z,16.47
2023-05-01T17:44:19.504Z,16.29
2023-05-01T17:46:46.118Z,16.33
2023-05-01T17:49:12.772Z,15.91
2023-05-01T17:51:39.390Z,15.96
2023-05-01T17:54:06.487Z,15.78
2023-05-01T17:56:33.168Z,15.80
2023-05-01T17:59:00.040Z,15.66
2023-05-01T18:01:26.737Z,15.54
2023-05-01T18:03:54.979Z,15.34
2023-05-01T18:06:21.737Z,15.20
2023-05-01T18:08:50.123Z,15.34
2023-05-01T18:11:17.005Z,15.27
2023-05-01T18:13:47.437Z,15.14
2023-05-01T18:16:18.626Z,14.93
2023-05-01T18:18:47.027Z,15.03
2023-05-01T18:21:14.630Z,14.85
2023-05-01T18:23:41.217Z,14.88
2023-05-01T18:26:08.214Z,14.69
2023-05-01T18:28:34.829Z,14.86
2023-05-01T18:31:01.547Z,14.87
2023-05-01T18:33:28.286Z,14.77
2023-05-01T18:35:54.889Z,14.71
2023-05-01T18:38:22.706Z,14.68
2023-05-01T18:40:49.277Z,14.63
2023-05-01T18:43:15.994Z,14.63
2023-05-01T18:45:43.011Z,14.56
2023-05-01T18:48:10.008Z,14.37
2023-05-01T18:50:36.637Z,14.47
2023-05-01T18:53:03.443Z,14.49
2023-05-01T18:55:30.113Z,14.54
2023-05-01T18:57:56.953Z,14.54
2023-05-01T19:00:25.963Z,14.50
2023-05-01T19:02:53.070Z,14.46
2023-05-01T19:05:20.008Z,14.49
2023-05-01T19:07:47.017Z,14.41
2023-05-01T19:10:14.264Z,14.47
2023-05-01T19:12:42.430Z,14.56
2023-05-01T19:15:10.434Z,14.37
2023-05-01T19:17:37.709Z,14.43
2023-05-01T19:20:05.520Z,14.35
2023-05-01T19:22:32.149Z,14.33
2023-05-01T19:25:00.125Z,14.23
2023-05-01T19:27:27.356Z,14.32
2023-05-01T19:29:54.728Z,14.36
2023-05-01T19:32:23.145Z,14.26
2023-05-01T19:34:50.181Z,14.20
2023-05-01T19:37:21.641Z,14.30
2023-05-01T19:39:48.243Z,14.27
2023-05-01T19:42:16.361Z,14.15
2023-05-01T19:44:45.944Z,14.15
2023-05-01T19:47:13.239Z,14.14
2023-05-01T19:49:40.171Z,14.12
2023-05-01T19:52:06.925Z,13.75
2023-05-01T19:54:33.618Z,14.43
2023-05-01T19:57:00.722Z,14.24
2023-05-01T19:59:28.360Z,14.09
2023-05-01T20:01:55.251Z,14.37
2023-05-01T20:04:24.575Z,14.48
2023-05-01T20:06:52.105Z,14.38
2023-05-01T20:09:18.978Z,14.47
2023-05-01T20:11:45.672Z,14.48
2023-05-01T20:14:12.528Z,14.54
2023-05-01T20:16:39.266Z,14.45
2023-05-01T20:19:06.529Z,14.44
2023-05-01T20:21:33.241Z,14.49
2023-05-01T20:23:59.810Z,14.49
2023-05-01T20:26:26.769Z,14.39
2023-05-01T20:28:53.720Z,14.42
2023-05-01T20:31:22.611Z,14.26
2023-05-01T20:33:51.102Z,14.38
2023-05-01T20:36:18.101Z,14.26
2023-05-01T20:38:46.296Z,14.40
2023-05-01T20:41:13.488Z,14.41
2023-05-01T20:43:43.187Z,14.33
2023-05-01T20:46:10.077Z,14.31
2023-05-01T20:48:36.889Z,14.33
2023-05-01T20:51:03.607Z,14.34
2023-05-01T20:53:30.417Z,14.16
2023-05-01T20:55:57.020Z,14.18
2023-05-01T20:58:23.607Z,14.32
2023-05-01T21:00:54.084Z,14.29
2023-05-01T21:03:21.082Z,14.33
2023-05-01T21:05:48.027Z,14.28
2023-05-01T21:08:15.266Z,14.29
2023-05-01T21:10:41.991Z,14.28
2023-05-01T21:13:08.611Z,14.23
2023-05-01T21:15:35.268Z,14.16
2023-05-01T21:18:02.076Z,14.13
2023-05-01T21:20:34.052Z,14.17
2023-05-01T21:23:01.359Z,14.16
2023-05-01T21:25:29.988Z,14.13
2023-05-01T21:27:56.747Z,14.09
2023-05-01T21:30:31.273Z,14.02
2023-05-01T21:32:58.430Z,13.86
2023-05-01T21:35:29.927Z,13.71
2023-05-01T21:37:57.302Z,13.85
2023-05-01T21:40:24.144Z,13.92
2023-05-01T21:42:52.955Z,13.91
2023-05-01T21:45:19.956Z,13.98
2023-05-01T21:47:51.228Z,13.95
2023-05-01T21:50:19.803Z,14.00
2023-05-01T21:52:48.280Z,13.97
2023-05-01T21:55:20.831Z,13.90
2023-05-01T21:57:49.839Z,13.89
2023-05-01T22:00:18.079Z,13.89
2023-05-01T22:02:47.129Z,13.91
2023-05-01T22:05:15.567Z,13.88
2023-05-01T22:07:43.782Z,13.74
2023-05-01T22:10:12.226Z,13.80
2023-05-01T22:12:39.753Z,13.77
2023-05-01T22:15:08.376Z,13.61
2023-05-01T22:17:35.228Z,13.59
2023-05-01T22:20:02.556Z,13.55
2023-05-01T22:22:29.324Z,13.57
2023-05-01T22:24:56.099Z,13.67
2023-05-01T22:27:22.789Z,13.63
2023-05-01T22:29:49.562Z,13.67
2023-05-01T22:32:16.278Z,13.61
2023-05-01T22:34:43.106Z,13.58
2023-05-01T22:37:09.986Z,13.51
2023-05-01T22:39:36.824Z,13.55
2023-05-01T22:42:04.014Z,13.46
2023-05-01T22:44:30.927Z,13.44
2023-05-01T22:46:59.385Z,13.27
2023-05-01T22:49:28.065Z,13.27
2023-05-01T22:51:58.047Z,13.15
2023-05-01T22:54:24.986Z,13.15
2023-05-01T22:56:51.793Z,13.06
2023-05-01T22:59:19.060Z,12.98
2023-05-01T23:01:46.211Z,12.88
2023-05-01T23:04:14.067Z,12.91
2023-05-01T23:06:41.105Z,12.86
2023-05-01T23:09:08.459Z,12.87
2023-05-01T23:11:35.434Z,12.88
2023-05-01T23:14:02.051Z,12.92
2023-05-01T23:16:36.488Z,12.94
2023-05-01T23:19:03.690Z,12.96
2023-05-01T23:21:30.977Z,13.02
2023-05-01T23:23:57.631Z,12.98
2023-05-01T23:26:26.011Z,13.00
2023-05-01T23:28:53.296Z,13.01
2023-05-01T23:31:29.262Z,13.05
2023-05-01T23:33:55.981Z,13.01
2023-05-01T23:36:22.853Z,13.05
2023-05-01T23:38:49.746Z,13.05
2023-05-01T23:41:16.604Z,13.12
2023-05-01T23:43:46.457Z,13.13
2023-05-01T23:46:13.417Z,13.06
2023-05-01T23:48:41.011Z,13.12
2023-05-01T23:51:08.019Z,13.01
2023-05-01T23:53:34.594Z,13.09
2023-05-01T23:56:01.307Z,13.11
2023-05-01T23:58:27.932Z,13.15
